Time;durP1;ratioP1;P1;durP2;ratioP2;P2;SDS_P1;SDS_P2;PMS_P1;PMS_P2;Temp;Humidity;BMP_temperature;BMP_pressure;BME280_temperature;BME280_humidity;BME280_pressure;Samples;Min_cycle;Max_cycle;Signal;HPM_P1;HPM_P2
2023/03/12 00:00:46;;;;;;;12.20;9.73;;;;;;;;;;5054159;28;20263;-82
2023/03/12 00:03:12;;;;;;;13.83;10.27;;;;;;;;;;5056393;28;20185;-81
2023/03/12 00:05:38;;;;;;;14.20;10.40;;;;;;;;;;5052115;28;20566;-82
2023/03/12 00:08:04;;;;;;;15.03;9.40;;;;;;;;;;5050297;28;20186;-81
2023/03/12 00:10:30;;;;;;;16.60;10.80;;;;;;;;;;5053139;28;20296;-79
2023/03/12 00:12:57;;;;;;;18.47;10.40;;;;;;;;;;5058670;28;20588;-82
2023/03/12 00:15:23;;;;;;;15.23;10.23;;;;;;;;;;5054122;28;20647;-81
2023/03/12 00:17:49;;;;;;;16.73;12.00;;;;;;;;;;5061869;28;20251;-82
2023/03/12 00:20:15;;;;;;;17.03;11.37;;;;;;;;;;5059153;28;20642;-81
2023/03/12 00:22:41;;;;;;;17.43;12.10;;;;;;;;;;5055573;28;20210;-82
2023/03/12 00:25:11;;;;;;;20.20;12.00;;;;;;;;;;5080370;28;20184;-82
2023/03/12 00:27:37;;;;;;;16.83;12.83;;;;;;;;;;5057834;28;20177;-82
2023/03/12 00:30:04;;;;;;;19.07;13.17;;;;;;;;;;5051455;28;20662;-82
2023/03/12 00:32:32;;;;;;;17.30;12.87;;;;;;;;;;5054384;28;20563;-82
2023/03/12 00:34:58;;;;;;;15.87;12.20;;;;;;;;;;5054487;28;20249;-81
2023/03/12 00:37:24;;;;;;;19.73;13.60;;;;;;;;;;5049716;28;20273;-82
2023/03/12 00:39:50;;;;;;;19.67;13.67;;;;;;;;;;5066327;28;20700;-79
2023/03/12 00:42:16;;;;;;;17.83;13.10;;;;;;;;;;5075639;28;20201;-81
2023/03/12 00:44:43;;;;;;;16.67;13.30;;;;;;;;;;5055421;28;20220;-79
2023/03/12 00:47:09;;;;;;;23.40;12.27;;;;;;;;;;5064347;28;20194;-81
2023/03/12 00:49:35;;;;;;;19.53;14.00;;;;;;;;;;5077763;28;20270;-82
2023/03/12 00:52:02;;;;;;;17.50;13.70;;;;;;;;;;5062443;28;20217;-79
2023/03/12 00:54:28;;;;;;;19.90;14.23;;;;;;;;;;5073860;28;20173;-79
2023/03/12 00:56:54;;;;;;;19.37;13.93;;;;;;;;;;5058644;28;20650;-79
2023/03/12 00:59:20;;;;;;;17.13;13.70;;;;;;;;;;5075742;28;20293;-79
2023/03/12 01:01:46;;;;;;;22.27;14.17;;;;;;;;;;5054886;28;20311;-81
2023/03/12 01:04:12;;;;;;;18.67;13.43;;;;;;;;;;5053052;28;20192;-81
2023/03/12 01:06:38;;;;;;;17.40;12.93;;;;;;;;;;5069179;28;20185;-81
2023/03/12 01:09:05;;;;;;;18.67;13.70;;;;;;;;;;5049229;28;20195;-78
2023/03/12 01:11:32;;;;;;;23.23;13.63;;;;;;;;;;5053401;28;20179;-79
2023/03/12 01:13:59;;;;;;;21.40;14.67;;;;;;;;;;5064994;28;20267;-82
2023/03/12 01:16:27;;;;;;;16.73;12.43;;;;;;;;;;5060831;28;20180;-81
2023/03/12 01:18:53;;;;;;;19.00;13.20;;;;;;;;;;5101342;28;20278;-82
2023/03/12 01:21:19;;;;;;;17.23;13.43;;;;;;;;;;5093829;28;20234;-81
2023/03/12 01:23:46;;;;;;;17.50;13.47;;;;;;;;;;5090241;28;20179;-82
2023/03/12 01:26:12;;;;;;;19.03;12.93;;;;;;;;;;5111777;28;20197;-82
2023/03/12 01:28:38;;;;;;;16.13;12.77;;;;;;;;;;5085467;28;20180;-81
2023/03/12 01:31:11;;;;;;;18.20;12.70;;;;;;;;;;5079958;28;20256;-81
2023/03/12 01:33:41;;;;;;;17.07;12.73;;;;;;;;;;5093551;28;20187;-81
2023/03/12 01:36:16;;;;;;;18.60;12.00;;;;;;;;;;5090984;28;20189;-81
2023/03/12 01:38:42;;;;;;;16.00;11.97;;;;;;;;;;5113647;28;20267;-79
2023/03/12 01:41:08;;;;;;;17.33;12.27;;;;;;;;;;5096391;28;20188;-78
2023/03/12 01:43:36;;;;;;;17.57;12.47;;;;;;;;;;5097204;28;20234;-82
2023/03/12 01:46:20;;;;;;;16.47;12.23;;;;;;;;;;5111517;28;20181;-81
2023/03/12 01:49:10;;;;;;;16.07;11.97;;;;;;;;;;5079166;28;20179;-81
2023/03/12 01:51:47;;;;;;;14.27;11.17;;;;;;;;;;5102258;28;20195;-81
2023/03/12 01:54:18;;;;;;;18.37;11.93;;;;;;;;;;5103147;28;20182;-81
2023/03/12 01:56:45;;;;;;;16.50;11.30;;;;;;;;;;5094166;28;20200;-81
2023/03/12 01:59:18;;;;;;;14.13;10.93;;;;;;;;;;5096366;28;20195;-81
2023/03/12 02:01:44;;;;;;;15.27;10.90;;;;;;;;;;5093638;28;20273;-81
2023/03/12 02:04:11;;;;;;;16.50;11.10;;;;;;;;;;5095141;28;20178;-82
2023/03/12 02:06:49;;;;;;;14.67;10.70;;;;;;;;;;5094994;28;20183;-81
2023/03/12 02:09:19;;;;;;;14.97;10.57;;;;;;;;;;5092782;28;20892;-81
2023/03/12 02:11:45;;;;;;;13.43;10.30;;;;;;;;;;5105634;28;20186;-81
2023/03/12 02:14:11;;;;;;;15.80;9.97;;;;;;;;;;5110543;28;20194;-80
2023/03/12 02:16:37;;;;;;;12.20;9.07;;;;;;;;;;5112276;28;20187;-80
2023/03/12 02:19:04;;;;;;;13.27;9.87;;;;;;;;;;5091363;28;20255;-80
2023/03/12 02:21:32;;;;;;;16.27;11.30;;;;;;;;;;5079092;28;20191;-80
2023/03/12 02:24:15;;;;;;;15.10;10.13;;;;;;;;;;5110210;28;20181;-80
2023/03/12 02:26:41;;;;;;;14.73;9.97;;;;;;;;;;5107901;28;20187;-80
2023/03/12 02:29:08;;;;;;;15.07;9.80;;;;;;;;;;5096848;28;20167;-80
2023/03/12 02:31:38;;;;;;;16.10;10.37;;;;;;;;;;5102604;28;20195;-79
2023/03/12 02:34:04;;;;;;;15.27;9.63;;;;;;;;;;5110006;28;20179;-80
2023/03/12 02:36:30;;;;;;;14.33;10.13;;;;;;;;;;5090460;28;20648;-79
2023/03/12 02:38:56;;;;;;;15.13;9.80;;;;;;;;;;5091059;28;20175;-80
2023/03/12 02:41:52;;;;;;;12.20;9.20;;;;;;;;;;5105733;28;20664;-80
2023/03/12 02:44:21;;;;;;;12.57;9.53;;;;;;;;;;5068506;28;20191;-80
2023/03/12 02:46:49;;;;;;;12.43;8.97;;;;;;;;;;5079052;28;20183;-79
2023/03/12 02:49:15;;;;;;;11.33;8.43;;;;;;;;;;5073929;28;20210;-80
2023/03/12 02:51:42;;;;;;;17.43;9.63;;;;;;;;;;5095976;28;20361;-79
2023/03/12 02:54:09;;;;;;;10.90;8.43;;;;;;;;;;5079671;28;20187;-80
2023/03/12 02:56:35;;;;;;;12.33;8.17;;;;;;;;;;5087028;28;20184;-80
2023/03/12 02:59:01;;;;;;;12.53;7.57;;;;;;;;;;5092176;28;20201;-79
2023/03/12 03:01:28;;;;;;;13.67;8.43;;;;;;;;;;5081919;28;20190;-80
2023/03/12 03:03:54;;;;;;;12.63;8.80;;;;;;;;;;5085033;28;20183;-80
2023/03/12 03:06:20;;;;;;;13.40;8.33;;;;;;;;;;5106385;28;20178;-80
2023/03/12 03:08:46;;;;;;;11.37;8.37;;;;;;;;;;5084047;28;20294;-80
2023/03/12 03:11:12;;;;;;;10.47;8.10;;;;;;;;;;5089212;28;20714;-80
2023/03/12 03:13:38;;;;;;;10.73;8.13;;;;;;;;;;5092616;28;21155;-79
2023/03/12 03:16:05;;;;;;;10.60;8.73;;;;;;;;;;5088521;28;20179;-80
2023/03/12 03:18:31;;;;;;;10.70;7.93;;;;;;;;;;5086141;28;20266;-79
2023/03/12 03:21:02;;;;;;;10.77;8.00;;;;;;;;;;5106318;28;20188;-80
2023/03/12 03:23:28;;;;;;;11.57;7.53;;;;;;;;;;5108113;28;20191;-80
2023/03/12 03:25:54;;;;;;;9.77;8.10;;;;;;;;;;5091829;28;20207;-80
2023/03/12 03:28:21;;;;;;;12.63;7.90;;;;;;;;;;5090864;28;20180;-80
2023/03/12 03:30:47;;;;;;;9.70;7.63;;;;;;;;;;5095352;28;20781;-80
2023/03/12 03:33:13;;;;;;;9.97;7.40;;;;;;;;;;5096712;28;20249;-80
2023/03/12 03:35:39;;;;;;;10.60;7.90;;;;;;;;;;5083325;28;20578;-80
2023/03/12 03:38:06;;;;;;;9.50;7.50;;;;;;;;;;5091547;28;20191;-80
2023/03/12 03:40:32;;;;;;;13.60;8.70;;;;;;;;;;5089595;28;20191;-79
2023/03/12 03:42:59;;;;;;;13.13;8.40;;;;;;;;;;5109953;28;20258;-80
2023/03/12 03:45:25;;;;;;;11.43;7.70;;;;;;;;;;5088841;28;20208;-80
2023/03/12 03:47:52;;;;;;;13.73;8.43;;;;;;;;;;5109390;28;20191;-80
2023/03/12 03:50:18;;;;;;;11.43;8.13;;;;;;;;;;5079246;28;20223;-80
2023/03/12 03:52:44;;;;;;;15.63;8.93;;;;;;;;;;5074335;28;20180;-80
2023/03/12 03:55:10;;;;;;;10.23;8.00;;;;;;;;;;5073511;28;20176;-79
2023/03/12 03:57:36;;;;;;;13.00;7.97;;;;;;;;;;5090227;28;20685;-80
2023/03/12 04:00:04;;;;;;;11.53;8.73;;;;;;;;;;5086724;28;20203;-80
2023/03/12 04:02:30;;;;;;;13.33;8.67;;;;;;;;;;5090432;28;20214;-80
2023/03/12 04:04:57;;;;;;;9.63;7.33;;;;;;;;;;5090941;28;20649;-80
2023/03/12 04:07:24;;;;;;;13.30;8.53;;;;;;;;;;5106204;28;20172;-80
2023/03/12 04:09:50;;;;;;;14.33;9.03;;;;;;;;;;5091416;28;20228;-80
2023/03/12 04:12:16;;;;;;;13.63;8.10;;;;;;;;;;5085972;28;20275;-80
2023/03/12 04:14:42;;;;;;;10.93;7.87;;;;;;;;;;5087973;28;20653;-80
2023/03/12 04:17:09;;;;;;;9.17;7.57;;;;;;;;;;5074803;28;20183;-79
2023/03/12 04:19:35;;;;;;;10.47;7.63;;;;;;;;;;5105641;28;20223;-80
2023/03/12 04:22:01;;;;;;;9.70;7.53;;;;;;;;;;5081765;28;20178;-80
2023/03/12 04:24:27;;;;;;;11.80;8.07;;;;;;;;;;5105108;28;20191;-80
2023/03/12 04:26:53;;;;;;;9.70;8.07;;;;;;;;;;5101770;28;20265;-80
2023/03/12 04:29:19;;;;;;;13.53;8.30;;;;;;;;;;5087842;28;20293;-79
2023/03/12 04:31:45;;;;;;;11.73;8.03;;;;;;;;;;5092094;28;20681;-80
2023/03/12 04:34:12;;;;;;;10.93;7.93;;;;;;;;;;5077523;28;20262;-80
2023/03/12 04:36:38;;;;;;;10.47;7.00;;;;;;;;;;5101942;28;20175;-80
2023/03/12 04:39:08;;;;;;;10.03;7.77;;;;;;;;;;5106848;28;20183;-80
2023/03/12 04:41:34;;;;;;;14.93;7.77;;;;;;;;;;5090477;28;20179;-80
2023/03/12 04:44:01;;;;;;;10.10;7.23;;;;;;;;;;5089529;28;20257;-80
2023/03/12 04:46:27;;;;;;;11.57;7.57;;;;;;;;;;5089539;28;20173;-79
2023/03/12 04:48:53;;;;;;;13.73;7.40;;;;;;;;;;5082480;28;20165;-80
2023/03/12 04:51:19;;;;;;;12.63;7.90;;;;;;;;;;5092324;28;20206;-80
2023/03/12 04:53:45;;;;;;;12.53;7.30;;;;;;;;;;5087690;28;20262;-79
2023/03/12 04:56:11;;;;;;;11.67;7.37;;;;;;;;;;5087880;28;20271;-80
2023/03/12 04:58:37;;;;;;;7.70;6.90;;;;;;;;;;5087570;28;20176;-80
2023/03/12 05:01:04;;;;;;;10.90;7.67;;;;;;;;;;5081861;28;20192;-80
2023/03/12 05:03:30;;;;;;;10.87;7.43;;;;;;;;;;5086739;28;20713;-80
2023/03/12 05:05:57;;;;;;;8.97;6.80;;;;;;;;;;5106743;28;20186;-80
2023/03/12 05:08:23;;;;;;;11.17;7.47;;;;;;;;;;5084521;28;20183;-80
2023/03/12 05:10:49;;;;;;;11.27;7.37;;;;;;;;;;5105895;28;20696;-80
2023/03/12 05:13:19;;;;;;;14.27;7.57;;;;;;;;;;5085618;28;20205;-80
2023/03/12 05:15:46;;;;;;;8.33;6.77;;;;;;;;;;5089132;28;20187;-80
2023/03/12 05:18:12;;;;;;;8.00;6.20;;;;;;;;;;5104373;28;20232;-80
2023/03/12 05:20:39;;;;;;;8.60;6.40;;;;;;;;;;5101552;28;20273;-79
2023/03/12 05:23:05;;;;;;;9.73;6.73;;;;;;;;;;5106024;28;20271;-79
2023/03/12 05:25:31;;;;;;;10.63;6.73;;;;;;;;;;5109016;28;20194;-80
2023/03/12 05:27:57;;;;;;;11.00;6.77;;;;;;;;;;5089518;28;20202;-79
2023/03/12 05:30:23;;;;;;;10.00;7.00;;;;;;;;;;5104864;28;20748;-80
2023/03/12 05:32:49;;;;;;;8.47;6.97;;;;;;;;;;5077433;28;20203;-80
2023/03/12 05:35:15;;;;;;;8.40;6.33;;;;;;;;;;5074211;28;20726;-80
2023/03/12 05:37:41;;;;;;;14.13;7.47;;;;;;;;;;5086327;28;20176;-80
2023/03/12 05:40:09;;;;;;;9.30;7.20;;;;;;;;;;5093049;28;20176;-80
2023/03/12 05:42:35;;;;;;;10.93;6.07;;;;;;;;;;5087427;28;20280;-80
2023/03/12 05:45:02;;;;;;;8.23;5.90;;;;;;;;;;5090199;28;20187;-80
2023/03/12 05:47:28;;;;;;;8.77;5.87;;;;;;;;;;5087419;28;20183;-80
2023/03/12 05:49:54;;;;;;;11.53;6.70;;;;;;;;;;5088973;28;20242;-80
2023/03/12 05:52:20;;;;;;;9.57;7.17;;;;;;;;;;5104920;28;20635;-80
2023/03/12 05:54:46;;;;;;;8.80;6.23;;;;;;;;;;5088729;28;20270;-80
2023/03/12 05:57:12;;;;;;;6.47;5.70;;;;;;;;;;5084149;28;20271;-80
2023/03/12 05:59:39;;;;;;;7.87;6.07;;;;;;;;;;5092306;28;20184;-80
2023/03/12 06:02:05;;;;;;;8.90;5.67;;;;;;;;;;5090656;28;20192;-80
2023/03/12 06:04:31;;;;;;;8.00;6.27;;;;;;;;;;5109094;28;20175;-80
2023/03/12 06:06:57;;;;;;;9.10;6.50;;;;;;;;;;5089723;28;20214;-80
2023/03/12 06:09:23;;;;;;;12.10;6.30;;;;;;;;;;5081129;28;20219;-80
2023/03/12 06:11:49;;;;;;;9.37;6.07;;;;;;;;;;5083687;28;20188;-80
2023/03/12 06:14:15;;;;;;;8.70;6.63;;;;;;;;;;5080108;28;20175;-79
2023/03/12 06:16:41;;;;;;;9.87;6.17;;;;;;;;;;5110224;28;20634;-79
2023/03/12 06:19:07;;;;;;;10.00;6.90;;;;;;;;;;5112071;28;20220;-79
2023/03/12 06:21:34;;;;;;;11.07;6.33;;;;;;;;;;5092841;28;20869;-79
2023/03/12 06:24:01;;;;;;;11.53;6.33;;;;;;;;;;5108475;28;20202;-79
2023/03/12 06:26:27;;;;;;;11.00;5.57;;;;;;;;;;5092877;28;20184;-79
2023/03/12 06:28:53;;;;;;;10.57;6.43;;;;;;;;;;5101557;28;20180;-79
2023/03/12 06:31:20;;;;;;;6.73;5.47;;;;;;;;;;5111532;28;20212;-79
2023/03/12 06:33:46;;;;;;;8.30;5.40;;;;;;;;;;5087238;28;20258;-79
2023/03/12 06:36:12;;;;;;;7.37;5.87;;;;;;;;;;5087276;28;20198;-79
2023/03/12 06:38:39;;;;;;;9.00;5.93;;;;;;;;;;5076485;28;20600;-79
2023/03/12 06:41:06;;;;;;;12.47;6.47;;;;;;;;;;5090523;28;20192;-78
2023/03/12 06:43:33;;;;;;;12.47;6.00;;;;;;;;;;5093809;28;20184;-79
2023/03/12 06:45:59;;;;;;;9.63;6.73;;;;;;;;;;5082903;28;20184;-79
2023/03/12 06:48:26;;;;;;;9.17;5.90;;;;;;;;;;5091901;28;20184;-79
2023/03/12 06:50:52;;;;;;;10.43;5.90;;;;;;;;;;5109986;28;20204;-81
2023/03/12 06:53:19;;;;;;;6.97;5.73;;;;;;;;;;5092465;28;20184;-79
2023/03/12 06:55:45;;;;;;;8.57;6.07;;;;;;;;;;5089461;28;20168;-79
2023/03/12 06:58:11;;;;;;;12.70;6.30;;;;;;;;;;5092842;28;20186;-79
2023/03/12 07:00:37;;;;;;;6.83;5.77;;;;;;;;;;5108536;28;20190;-79
2023/03/12 07:03:04;;;;;;;9.70;5.83;;;;;;;;;;5105662;28;20184;-80
2023/03/12 07:05:30;;;;;;;9.50;6.50;;;;;;;;;;5081800;28;20234;-79
2023/03/12 07:07:56;;;;;;;9.83;6.50;;;;;;;;;;5094013;28;20167;-82
2023/03/12 07:10:22;;;;;;;9.23;6.60;;;;;;;;;;5085440;28;20216;-79
2023/03/12 07:12:48;;;;;;;14.47;6.87;;;;;;;;;;5086789;28;20180;-79
2023/03/12 07:15:15;;;;;;;8.67;6.97;;;;;;;;;;5087233;28;20233;-78
2023/03/12 07:17:41;;;;;;;12.00;6.97;;;;;;;;;;5085789;28;20221;-79
2023/03/12 07:20:07;;;;;;;11.03;6.83;;;;;;;;;;5070061;28;20264;-79
2023/03/12 07:22:33;;;;;;;9.83;6.03;;;;;;;;;;5058115;28;20219;-80
2023/03/12 07:24:59;;;;;;;9.10;5.33;;;;;;;;;;5068650;28;20195;-80
2023/03/12 07:27:26;;;;;;;9.13;6.03;;;;;;;;;;5060496;28;20189;-79
2023/03/12 07:29:52;;;;;;;7.23;5.03;;;;;;;;;;5066536;28;20213;-81
2023/03/12 07:32:18;;;;;;;10.43;6.00;;;;;;;;;;5068604;28;20662;-79
2023/03/12 07:34:45;;;;;;;11.20;5.47;;;;;;;;;;5068695;28;20181;-79
2023/03/12 07:37:11;;;;;;;7.70;5.47;;;;;;;;;;5070439;28;20197;-80
2023/03/12 07:39:37;;;;;;;8.87;5.20;;;;;;;;;;5066617;28;20189;-79
2023/03/12 07:42:03;;;;;;;7.87;5.23;;;;;;;;;;5065375;28;20207;-79
2023/03/12 07:44:29;;;;;;;7.93;4.80;;;;;;;;;;5069802;28;20188;-79
2023/03/12 07:46:55;;;;;;;7.70;4.70;;;;;;;;;;5068156;28;20188;-79
2023/03/12 07:49:21;;;;;;;8.53;4.90;;;;;;;;;;5067885;28;20235;-79
2023/03/12 07:51:47;;;;;;;12.33;5.30;;;;;;;;;;5067928;28;20188;-79
2023/03/12 07:54:13;;;;;;;7.40;5.10;;;;;;;;;;5070279;28;20185;-79
2023/03/12 07:56:39;;;;;;;10.90;4.67;;;;;;;;;;5071956;28;20184;-79
2023/03/12 07:59:05;;;;;;;9.23;4.90;;;;;;;;;;5067293;28;20177;-80
2023/03/12 08:01:31;;;;;;;7.50;4.77;;;;;;;;;;5068372;28;20177;-79
2023/03/12 08:04:01;;;;;;;8.07;4.57;;;;;;;;;;5083760;28;20205;-80
2023/03/12 08:06:28;;;;;;;6.97;4.13;;;;;;;;;;5071385;28;20220;-79
2023/03/12 08:08:54;;;;;;;5.67;4.50;;;;;;;;;;5065425;28;20197;-82
2023/03/12 08:11:20;;;;;;;6.33;4.83;;;;;;;;;;5063887;28;20213;-80
2023/03/12 08:13:46;;;;;;;8.73;5.43;;;;;;;;;;5070659;28;20513;-79
2023/03/12 08:16:13;;;;;;;5.03;3.87;;;;;;;;;;5059245;28;20197;-80
2023/03/12 08:18:41;;;;;;;7.27;4.10;;;;;;;;;;5073235;28;21595;-80
2023/03/12 08:21:07;;;;;;;5.97;3.93;;;;;;;;;;5057528;28;20527;-80
2023/03/12 08:23:34;;;;;;;6.53;3.87;;;;;;;;;;5063060;28;20173;-82
2023/03/12 08:26:00;;;;;;;6.43;4.63;;;;;;;;;;5064792;28;20269;-80
2023/03/12 08:28:26;;;;;;;6.10;4.53;;;;;;;;;;5063506;28;21004;-79
2023/03/12 08:30:54;;;;;;;6.00;4.33;;;;;;;;;;5059613;28;20613;-80
2023/03/12 08:33:20;;;;;;;7.60;4.37;;;;;;;;;;5058167;28;20612;-79
2023/03/12 08:35:46;;;;;;;4.83;3.77;;;;;;;;;;5071089;28;20204;-81
2023/03/12 08:38:12;;;;;;;6.73;4.00;;;;;;;;;;5062173;28;20203;-80
2023/03/12 08:40:38;;;;;;;7.53;5.10;;;;;;;;;;5048823;28;20178;-80
2023/03/12 08:43:06;;;;;;;5.90;3.80;;;;;;;;;;5059778;28;20185;-81
2023/03/12 08:45:34;;;;;;;7.40;4.10;;;;;;;;;;5062499;28;20208;-81
2023/03/12 08:48:00;;;;;;;4.53;3.63;;;;;;;;;;5066676;28;20177;-81
2023/03/12 08:50:29;;;;;;;8.83;3.53;;;;;;;;;;5056980;28;20293;-81
2023/03/12 08:52:55;;;;;;;6.93;4.00;;;;;;;;;;5062320;28;20268;-81
2023/03/12 08:55:22;;;;;;;4.63;3.10;;;;;;;;;;5061521;28;20239;-81
2023/03/12 08:57:48;;;;;;;6.67;2.80;;;;;;;;;;5065344;28;20184;-80
2023/03/12 09:00:15;;;;;;;4.57;2.87;;;;;;;;;;5053726;28;20196;-80
2023/03/12 09:02:43;;;;;;;6.40;2.87;;;;;;;;;;5055092;28;20185;-80
2023/03/12 09:05:09;;;;;;;3.87;2.90;;;;;;;;;;5065122;28;20776;-81
2023/03/12 09:07:35;;;;;;;6.33;3.23;;;;;;;;;;5055053;28;20177;-81
2023/03/12 09:10:01;;;;;;;5.37;3.20;;;;;;;;;;5061212;28;20205;-81
2023/03/12 09:12:27;;;;;;;4.40;2.63;;;;;;;;;;5050740;28;20647;-80
2023/03/12 09:14:53;;;;;;;5.20;2.87;;;;;;;;;;5059039;28;20662;-80
2023/03/12 09:17:19;;;;;;;5.60;2.87;;;;;;;;;;5063320;28;20195;-81
2023/03/12 09:19:45;;;;;;;10.73;2.87;;;;;;;;;;5104018;28;20184;-80
2023/03/12 09:22:12;;;;;;;5.03;2.40;;;;;;;;;;5076825;28;20597;-80
2023/03/12 09:24:38;;;;;;;5.23;2.30;;;;;;;;;;5078078;28;20192;-80
2023/03/12 09:27:04;;;;;;;4.37;2.10;;;;;;;;;;5096154;28;20167;-82
2023/03/12 09:29:30;;;;;;;5.47;2.40;;;;;;;;;;5104300;28;20544;-79
2023/03/12 09:31:56;;;;;;;7.00;2.70;;;;;;;;;;5110055;28;20669;-79
2023/03/12 09:34:22;;;;;;;8.70;4.20;;;;;;;;;;5105678;28;20765;-80
2023/03/12 09:36:49;;;;;;;6.13;3.87;;;;;;;;;;5102048;28;20656;-80
2023/03/12 09:39:15;;;;;;;9.40;5.23;;;;;;;;;;5085736;28;21185;-82
2023/03/12 09:41:44;;;;;;;7.17;5.17;;;;;;;;;;5074419;28;20565;-81
2023/03/12 09:44:19;;;;;;;6.10;4.50;;;;;;;;;;5091761;28;20176;-83
2023/03/12 09:47:04;;;;;;;7.67;4.37;;;;;;;;;;5095676;28;20198;-81
2023/03/12 09:49:30;;;;;;;6.50;3.80;;;;;;;;;;5107673;28;20757;-82
2023/03/12 09:51:57;;;;;;;7.07;3.63;;;;;;;;;;5111313;28;20317;-83
2023/03/12 09:54:23;;;;;;;4.90;3.03;;;;;;;;;;5098865;28;20187;-81
2023/03/12 09:56:51;;;;;;;5.20;3.17;;;;;;;;;;5091223;28;20180;-82
2023/03/12 09:59:17;;;;;;;5.30;3.00;;;;;;;;;;5100819;28;20634;-82
2023/03/12 10:01:44;;;;;;;3.97;2.70;;;;;;;;;;5090921;28;20712;-80
2023/03/12 10:04:10;;;;;;;6.20;3.17;;;;;;;;;;5093590;28;20179;-81
2023/03/12 10:06:43;;;;;;;8.30;3.53;;;;;;;;;;5112654;28;20175;-81
2023/03/12 10:09:12;;;;;;;9.63;4.50;;;;;;;;;;5110436;28;20190;-80
2023/03/12 10:11:50;;;;;;;7.00;3.93;;;;;;;;;;5112690;28;20164;-80
2023/03/12 10:14:35;;;;;;;5.17;3.10;;;;;;;;;;5095109;28;20168;-80
2023/03/12 10:17:10;;;;;;;6.90;3.47;;;;;;;;;;5094580;28;20180;-80
2023/03/12 10:19:55;;;;;;;5.53;3.27;;;;;;;;;;5110267;28;20227;-80
2023/03/12 10:22:26;;;;;;;8.17;3.03;;;;;;;;;;5107002;28;20179;-80
2023/03/12 10:24:56;;;;;;;5.67;3.20;;;;;;;;;;5110777;28;20224;-80
2023/03/12 10:27:23;;;;;;;8.80;3.60;;;;;;;;;;5106804;28;20188;-80
2023/03/12 10:29:50;;;;;;;4.17;2.97;;;;;;;;;;5110478;28;20728;-82
2023/03/12 10:32:26;;;;;;;6.93;2.80;;;;;;;;;;5113820;28;20345;-82
2023/03/12 10:34:57;;;;;;;4.83;2.33;;;;;;;;;;5094781;28;20197;-81
2023/03/12 10:37:23;;;;;;;4.70;2.20;;;;;;;;;;5110379;28;20274;-81
2023/03/12 10:39:50;;;;;;;7.23;2.93;;;;;;;;;;5094954;28;20325;-82
2023/03/12 10:42:20;;;;;;;6.03;3.37;;;;;;;;;;5091003;28;20265;-82
2023/03/12 10:44:48;;;;;;;7.43;3.07;;;;;;;;;;5109730;28;20192;-80
2023/03/12 10:47:14;;;;;;;9.37;3.77;;;;;;;;;;5113501;28;20176;-81
2023/03/12 10:49:40;;;;;;;5.63;3.77;;;;;;;;;;5094715;28;20218;-81
2023/03/12 10:52:15;;;;;;;11.43;3.47;;;;;;;;;;5109513;28;20183;-81
2023/03/12 10:54:43;;;;;;;5.70;3.87;;;;;;;;;;5107486;28;20179;-81
2023/03/12 10:57:10;;;;;;;7.80;3.70;;;;;;;;;;5094721;28;20211;-81
2023/03/12 10:59:44;;;;;;;4.93;2.93;;;;;;;;;;5093448;28;20693;-81
2023/03/12 11:02:28;;;;;;;4.83;2.90;;;;;;;;;;5093908;28;20171;-81
2023/03/12 11:04:55;;;;;;;10.50;3.17;;;;;;;;;;5106886;28;20198;-81
2023/03/12 11:07:21;;;;;;;5.83;3.10;;;;;;;;;;5097203;28;20242;-81
2023/03/12 11:10:02;;;;;;;7.33;3.73;;;;;;;;;;5094644;28;20257;-81
2023/03/12 11:12:29;;;;;;;8.13;2.77;;;;;;;;;;5090941;28;20525;-81
2023/03/12 11:14:55;;;;;;;9.13;3.10;;;;;;;;;;5092397;28;20187;-81
2023/03/12 11:17:26;;;;;;;6.33;2.97;;;;;;;;;;5092379;28;20259;-81
2023/03/12 11:19:52;;;;;;;6.77;3.73;;;;;;;;;;5089392;28;20611;-81
2023/03/12 11:22:32;;;;;;;9.77;5.43;;;;;;;;;;5087073;28;20187;-81
2023/03/12 11:24:59;;;;;;;8.33;2.80;;;;;;;;;;5087844;28;20177;-81
2023/03/12 11:27:25;;;;;;;8.77;3.53;;;;;;;;;;5083929;28;20207;-81
2023/03/12 11:29:52;;;;;;;4.90;2.90;;;;;;;;;;5087045;28;30381;-82
2023/03/12 11:32:30;;;;;;;4.40;2.63;;;;;;;;;;5104124;28;20184;-81
2023/03/12 11:34:57;;;;;;;7.87;4.43;;;;;;;;;;5087968;28;20240;-81
2023/03/12 11:37:26;;;;;;;5.00;2.60;;;;;;;;;;5086201;28;20179;-81
2023/03/12 11:39:55;;;;;;;5.87;2.93;;;;;;;;;;5089257;28;20211;-81
2023/03/12 11:42:24;;;;;;;6.40;2.40;;;;;;;;;;5107827;28;20175;-81
2023/03/12 11:44:57;;;;;;;7.73;2.70;;;;;;;;;;5090302;28;20179;-80
2023/03/12 11:47:26;;;;;;;4.17;2.47;;;;;;;;;;5090800;28;20229;-80
2023/03/12 11:49:52;;;;;;;5.93;2.67;;;;;;;;;;5095280;28;20211;-80
2023/03/12 11:52:33;;;;;;;6.27;2.43;;;;;;;;;;5093801;28;20256;-80
2023/03/12 11:55:18;;;;;;;8.57;5.37;;;;;;;;;;5109855;28;20231;-80
2023/03/12 11:58:03;;;;;;;5.97;3.63;;;;;;;;;;5093277;28;20180;-80
2023/03/12 12:00:47;;;;;;;6.30;3.57;;;;;;;;;;5108922;28;20606;-80
2023/03/12 12:03:19;;;;;;;5.73;2.50;;;;;;;;;;5075820;28;20513;-80
2023/03/12 12:05:48;;;;;;;7.23;3.43;;;;;;;;;;5111440;28;20168;-80
2023/03/12 12:08:33;;;;;;;5.73;3.03;;;;;;;;;;5110594;28;20180;-80
2023/03/12 12:11:14;;;;;;;6.87;3.10;;;;;;;;;;5108666;28;20298;-80
2023/03/12 12:13:40;;;;;;;6.47;2.80;;;;;;;;;;5088102;28;20183;-80
2023/03/12 12:16:22;;;;;;;6.53;3.10;;;;;;;;;;5092926;28;20194;-79
2023/03/12 12:19:06;;;;;;;3.73;2.37;;;;;;;;;;5098609;28;20442;-80
2023/03/12 12:21:48;;;;;;;10.23;3.03;;;;;;;;;;5093343;28;20172;-80
2023/03/12 12:24:29;;;;;;;5.33;3.20;;;;;;;;;;5093148;28;20245;-81
2023/03/12 12:26:55;;;;;;;9.73;4.37;;;;;;;;;;5110789;28;20187;-80
2023/03/12 12:29:32;;;;;;;6.00;3.60;;;;;;;;;;5091587;28;20237;-81
2023/03/12 12:32:01;;;;;;;5.90;2.90;;;;;;;;;;5095639;28;20637;-80
2023/03/12 12:34:46;;;;;;;8.00;3.03;;;;;;;;;;5090832;28;20191;-81
2023/03/12 12:37:34;;;;;;;4.83;3.03;;;;;;;;;;5089948;28;20221;-80
2023/03/12 12:40:19;;;;;;;8.87;3.20;;;;;;;;;;5102448;28;20238;-80
2023/03/12 12:42:55;;;;;;;6.50;4.00;;;;;;;;;;5094192;28;20187;-80
2023/03/12 12:45:22;;;;;;;5.97;3.57;;;;;;;;;;5075260;28;20179;-80
2023/03/12 12:47:50;;;;;;;8.17;4.27;;;;;;;;;;5108710;28;20175;-81
2023/03/12 12:50:19;;;;;;;8.53;3.87;;;;;;;;;;5106099;28;20198;-81
2023/03/12 12:52:50;;;;;;;7.20;3.47;;;;;;;;;;5108659;28;20184;-80
2023/03/12 12:55:24;;;;;;;7.50;3.90;;;;;;;;;;5082229;28;20672;-81
2023/03/12 12:57:50;;;;;;;7.80;3.80;;;;;;;;;;5107100;28;20181;-80
2023/03/12 13:00:22;;;;;;;10.50;4.73;;;;;;;;;;5104857;28;20183;-81
2023/03/12 13:02:49;;;;;;;9.37;3.20;;;;;;;;;;5073644;28;20263;-80
2023/03/12 13:05:20;;;;;;;5.47;3.33;;;;;;;;;;5095631;28;20177;-80
2023/03/12 13:07:46;;;;;;;5.03;3.00;;;;;;;;;;5105362;28;20187;-80
2023/03/12 13:10:51;;;;;;;6.17;3.47;;;;;;;;;;5087435;28;20579;-80
2023/03/12 13:13:19;;;;;;;9.90;5.20;;;;;;;;;;5031691;28;20188;-80
2023/03/12 13:15:45;;;;;;;4.57;3.00;;;;;;;;;;5051431;28;20211;-80
2023/03/12 13:18:25;;;;;;;5.30;3.27;;;;;;;;;;5029100;28;20224;-80
2023/03/12 13:20:51;;;;;;;9.50;5.97;;;;;;;;;;5043210;28;20674;-80
2023/03/12 13:23:35;;;;;;;6.30;3.40;;;;;;;;;;5043175;28;20181;-80
2023/03/12 13:26:14;;;;;;;7.17;4.23;;;;;;;;;;5049713;28;20244;-80
2023/03/12 13:28:52;;;;;;;10.83;4.00;;;;;;;;;;5044173;28;20671;-80
2023/03/12 13:31:27;;;;;;;10.77;4.40;;;;;;;;;;5046345;28;20303;-81
2023/03/12 13:33:56;;;;;;;10.03;5.17;;;;;;;;;;5046915;28;20192;-79
2023/03/12 13:36:32;;;;;;;23.77;11.80;;;;;;;;;;5030992;28;20379;-80
2023/03/12 13:38:59;;;;;;;7.50;4.90;;;;;;;;;;5057433;28;20553;-80
2023/03/12 13:41:36;;;;;;;12.80;7.93;;;;;;;;;;5049463;28;20247;-80
2023/03/12 13:44:21;;;;;;;6.40;3.33;;;;;;;;;;5058311;28;20816;-81
2023/03/12 13:46:47;;;;;;;11.13;4.57;;;;;;;;;;5098218;28;20933;-80
2023/03/12 13:49:15;;;;;;;9.70;5.40;;;;;;;;;;5080054;28;20199;-80
2023/03/12 13:52:13;;;;;;;8.20;4.87;;;;;;;;;;5099624;28;20196;-80
2023/03/12 13:54:41;;;;;;;7.67;4.10;;;;;;;;;;5010173;28;20203;-81
2023/03/12 13:57:11;;;;;;;7.57;4.30;;;;;;;;;;4996881;28;20218;-81
2023/03/12 13:59:42;;;;;;;6.63;4.43;;;;;;;;;;4993166;28;20410;-81
2023/03/12 14:02:16;;;;;;;5.83;3.60;;;;;;;;;;4990614;28;20196;-82
2023/03/12 14:04:43;;;;;;;6.97;4.13;;;;;;;;;;4994270;28;20685;-82
2023/03/12 14:07:44;;;;;;;6.70;3.23;;;;;;;;;;5011697;28;20278;-83
2023/03/12 14:10:13;;;;;;;12.83;8.63;;;;;;;;;;4992906;28;20284;-82
2023/03/12 14:12:58;;;;;;;11.70;6.10;;;;;;;;;;4993131;28;20195;-81
2023/03/12 14:15:32;;;;;;;7.70;5.00;;;;;;;;;;4975861;28;20203;-81
2023/03/12 14:18:05;;;;;;;18.80;11.30;;;;;;;;;;4997246;28;20289;-81
2023/03/12 14:20:31;;;;;;;11.33;5.47;;;;;;;;;;4994933;28;20187;-82
2023/03/12 14:23:03;;;;;;;10.00;5.60;;;;;;;;;;4984173;28;20199;-82
2023/03/12 14:25:45;;;;;;;10.53;5.80;;;;;;;;;;4995638;28;20203;-81
2023/03/12 14:28:16;;;;;;;18.50;12.17;;;;;;;;;;4994925;28;20196;-81
2023/03/12 14:31:00;;;;;;;9.33;5.67;;;;;;;;;;5024024;28;20221;-81
2023/03/12 14:33:31;;;;;;;7.80;4.80;;;;;;;;;;5055063;28;21616;-81
2023/03/12 14:36:01;;;;;;;7.00;4.63;;;;;;;;;;5050555;28;20176;-82
2023/03/12 14:38:32;;;;;;;5.40;3.40;;;;;;;;;;5050223;28;20212;-82
2023/03/12 14:41:01;;;;;;;8.60;5.20;;;;;;;;;;5051190;28;20243;-81
2023/03/12 14:43:31;;;;;;;8.37;5.30;;;;;;;;;;5058119;28;20199;-81
2023/03/12 14:45:59;;;;;;;8.87;4.43;;;;;;;;;;5103588;28;20191;-82